sensor_id;sensor_type;location;lat;lon;timestamp;temperature;humidity
16174;DHT22;14031;50.158;8.626;2022-12-18T00:00:57;-4.20;99.90
16174;DHT22;14031;50.158;8.626;2022-12-18T00:03:23;-4.20;99.90
16174;DHT22;14031;50.158;8.626;2022-12-18T00:05:58;-4.20;99.90
16174;DHT22;14031;50.158;8.626;2022-12-18T00:08:30;-4.20;99.90
16174;DHT22;14031;50.158;8.626;2022-12-18T00:11:03;-4.20;99.90
16174;DHT22;14031;50.158;8.626;2022-12-18T00:13:30;-4.30;99.90
16174;DHT22;14031;50.158;8.626;2022-12-18T00:16:01;-4.20;99.90
16174;DHT22;14031;50.158;8.626;2022-12-18T00:18:28;-4.30;99.90
16174;DHT22;14031;50.158;8.626;2022-12-18T00:20:58;-4.20;99.90
16174;DHT22;14031;50.158;8.626;2022-12-18T00:23:25;-4.30;99.90
16174;DHT22;14031;50.158;8.626;2022-12-18T00:25:53;-4.20;99.90
16174;DHT22;14031;50.158;8.626;2022-12-18T00:28:20;-4.30;99.90
16174;DHT22;14031;50.158;8.626;2022-12-18T00:30:47;-4.30;99.90
16174;DHT22;14031;50.158;8.626;2022-12-18T00:33:16;-4.40;99.90
16174;DHT22;14031;50.158;8.626;2022-12-18T00:35:43;-4.40;99.90
16174;DHT22;14031;50.158;8.626;2022-12-18T00:38:13;-4.40;99.90
16174;DHT22;14031;50.158;8.626;2022-12-18T00:40:39;-4.50;99.90
16174;DHT22;14031;50.158;8.626;2022-12-18T00:43:08;-4.50;99.90
16174;DHT22;14031;50.158;8.626;2022-12-18T00:45:33;-4.60;99.90
16174;DHT22;14031;50.158;8.626;2022-12-18T00:48:01;-4.60;99.90
16174;DHT22;14031;50.158;8.626;2022-12-18T00:50:28;-4.60;99.90
16174;DHT22;14031;50.158;8.626;2022-12-18T00:52:55;-4.70;99.90
16174;DHT22;14031;50.158;8.626;2022-12-18T00:55:21;-4.70;99.90
16174;DHT22;14031;50.158;8.626;2022-12-18T00:57:50;-4.60;99.90
16174;DHT22;14031;50.158;8.626;2022-12-18T01:00:19;-4.60;99.90
16174;DHT22;14031;50.158;8.626;2022-12-18T01:02:46;-4.70;99.90
16174;DHT22;14031;50.158;8.626;2022-12-18T01:05:13;-4.70;99.90
16174;DHT22;14031;50.158;8.626;2022-12-18T01:07:41;-4.70;99.90
16174;DHT22;14031;50.158;8.626;2022-12-18T01:10:10;-4.80;99.90
16174;DHT22;14031;50.158;8.626;2022-12-18T01:12:38;-5.00;99.90
16174;DHT22;14031;50.158;8.626;2022-12-18T01:15:13;-4.90;99.90
16174;DHT22;14031;50.158;8.626;2022-12-18T01:17:42;-4.90;99.90
16174;DHT22;14031;50.158;8.626;2022-12-18T01:20:11;-4.80;99.90
16174;DHT22;14031;50.158;8.626;2022-12-18T01:22:38;-4.80;99.90
16174;DHT22;14031;50.158;8.626;2022-12-18T01:25:06;-4.80;99.90
16174;DHT22;14031;50.158;8.626;2022-12-18T01:27:34;-4.80;99.90
16174;DHT22;14031;50.158;8.626;2022-12-18T01:30:00;-4.80;99.90
16174;DHT22;14031;50.158;8.626;2022-12-18T01:32:29;-4.80;99.90
16174;DHT22;14031;50.158;8.626;2022-12-18T01:34:58;-4.80;99.90
16174;DHT22;14031;50.158;8.626;2022-12-18T01:37:25;-4.70;99.90
16174;DHT22;14031;50.158;8.626;2022-12-18T01:39:52;-4.80;99.90
16174;DHT22;14031;50.158;8.626;2022-12-18T01:42:20;-4.70;99.90
16174;DHT22;14031;50.158;8.626;2022-12-18T01:44:59;-4.70;99.90
16174;DHT22;14031;50.158;8.626;2022-12-18T01:47:38;-4.70;99.90
16174;DHT22;14031;50.158;8.626;2022-12-18T01:50:10;-4.80;99.90
16174;DHT22;14031;50.158;8.626;2022-12-18T01:52:38;-4.90;99.90
16174;DHT22;14031;50.158;8.626;2022-12-18T01:55:08;-4.90;99.90
16174;DHT22;14031;50.158;8.626;2022-12-18T01:57:36;-4.90;99.90
16174;DHT22;14031;50.158;8.626;2022-12-18T02:00:06;-4.90;99.90
16174;DHT22;14031;50.158;8.626;2022-12-18T02:02:33;-4.90;99.90
16174;DHT22;14031;50.158;8.626;2022-12-18T02:05:01;-4.90;99.90
16174;DHT22;14031;50.158;8.626;2022-12-18T02:07:40;-4.90;99.90
16174;DHT22;14031;50.158;8.626;2022-12-18T02:10:13;-4.90;99.90
16174;DHT22;14031;50.158;8.626;2022-12-18T02:12:45;-4.90;99.90
16174;DHT22;14031;50.158;8.626;2022-12-18T02:15:20;-4.90;99.90
16174;DHT22;14031;50.158;8.626;2022-12-18T02:17:53;-4.90;99.90
16174;DHT22;14031;50.158;8.626;2022-12-18T02:20:24;-4.90;99.90
16174;DHT22;14031;50.158;8.626;2022-12-18T02:23:04;-4.80;99.90
16174;DHT22;14031;50.158;8.626;2022-12-18T02:25:53;-4.80;99.90
16174;DHT22;14031;50.158;8.626;2022-12-18T02:28:31;-4.80;99.90
16174;DHT22;14031;50.158;8.626;2022-12-18T02:31:01;-4.80;99.90
16174;DHT22;14031;50.158;8.626;2022-12-18T02:33:31;-4.80;99.90
16174;DHT22;14031;50.158;8.626;2022-12-18T02:36:00;-4.80;99.90
16174;DHT22;14031;50.158;8.626;2022-12-18T02:38:29;-4.80;99.90
16174;DHT22;14031;50.158;8.626;2022-12-18T02:40:59;-4.80;99.90
16174;DHT22;14031;50.158;8.626;2022-12-18T02:43:26;-4.80;99.90
16174;DHT22;14031;50.158;8.626;2022-12-18T02:45:56;-4.90;99.90
16174;DHT22;14031;50.158;8.626;2022-12-18T02:48:28;-5.00;99.90
16174;DHT22;14031;50.158;8.626;2022-12-18T02:51:01;-5.00;99.90
16174;DHT22;14031;50.158;8.626;2022-12-18T02:53:36;-5.00;99.90
16174;DHT22;14031;50.158;8.626;2022-12-18T02:56:09;-4.90;99.90
16174;DHT22;14031;50.158;8.626;2022-12-18T02:58:41;-5.00;99.90
16174;DHT22;14031;50.158;8.626;2022-12-18T03:01:15;-5.00;99.90
16174;DHT22;14031;50.158;8.626;2022-12-18T03:03:47;-5.00;99.90
16174;DHT22;14031;50.158;8.626;2022-12-18T03:06:21;-5.00;99.90
16174;DHT22;14031;50.158;8.626;2022-12-18T03:08:54;-5.00;99.90
16174;DHT22;14031;50.158;8.626;2022-12-18T03:11:25;-5.10;99.90
16174;DHT22;14031;50.158;8.626;2022-12-18T03:14:07;-5.10;99.90
16174;DHT22;14031;50.158;8.626;2022-12-18T03:16:36;-5.10;99.90
16174;DHT22;14031;50.158;8.626;2022-12-18T03:19:06;-5.10;99.90
16174;DHT22;14031;50.158;8.626;2022-12-18T03:21:40;-5.00;99.90
16174;DHT22;14031;50.158;8.626;2022-12-18T03:24:09;-5.00;99.90
16174;DHT22;14031;50.158;8.626;2022-12-18T03:26:40;-5.00;99.90
16174;DHT22;14031;50.158;8.626;2022-12-18T03:29:12;-5.10;99.90
16174;DHT22;14031;50.158;8.626;2022-12-18T03:31:42;-5.20;99.90
16174;DHT22;14031;50.158;8.626;2022-12-18T03:34:14;-5.30;99.90
16174;DHT22;14031;50.158;8.626;2022-12-18T03:36:43;-5.30;99.90
16174;DHT22;14031;50.158;8.626;2022-12-18T03:39:10;-5.20;99.90
16174;DHT22;14031;50.158;8.626;2022-12-18T03:41:43;-5.30;99.90
16174;DHT22;14031;50.158;8.626;2022-12-18T03:44:13;-5.30;99.90
16174;DHT22;14031;50.158;8.626;2022-12-18T03:46:47;-5.30;99.90
16174;DHT22;14031;50.158;8.626;2022-12-18T03:49:23;-5.30;99.90
16174;DHT22;14031;50.158;8.626;2022-12-18T03:51:54;-5.20;99.90
16174;DHT22;14031;50.158;8.626;2022-12-18T03:54:25;-5.30;99.90
16174;DHT22;14031;50.158;8.626;2022-12-18T03:56:58;-5.20;99.90
16174;DHT22;14031;50.158;8.626;2022-12-18T03:59:27;-5.20;99.90
16174;DHT22;14031;50.158;8.626;2022-12-18T04:01:56;-5.20;99.90
16174;DHT22;14031;50.158;8.626;2022-12-18T04:04:25;-5.20;99.90
16174;DHT22;14031;50.158;8.626;2022-12-18T04:06:52;-5.20;99.90
16174;DHT22;14031;50.158;8.626;2022-12-18T04:09:20;-5.20;99.90
16174;DHT22;14031;50.158;8.626;2022-12-18T04:11:48;-5.10;99.90
16174;DHT22;14031;50.158;8.626;2022-12-18T04:14:16;-5.10;99.90
16174;DHT22;14031;50.158;8.626;2022-12-18T04:16:43;-5.10;99.90
16174;DHT22;14031;50.158;8.626;2022-12-18T04:19:09;-5.20;99.90
16174;DHT22;14031;50.158;8.626;2022-12-18T04:21:36;-5.20;99.90
16174;DHT22;14031;50.158;8.626;2022-12-18T04:24:03;-5.20;99.90
16174;DHT22;14031;50.158;8.626;2022-12-18T04:26:30;-5.20;99.90
16174;DHT22;14031;50.158;8.626;2022-12-18T04:28:57;-5.20;99.90
16174;DHT22;14031;50.158;8.626;2022-12-18T04:31:25;-5.30;99.90
16174;DHT22;14031;50.158;8.626;2022-12-18T04:33:52;-5.30;99.90
16174;DHT22;14031;50.158;8.626;2022-12-18T04:36:18;-5.20;99.90
16174;DHT22;14031;50.158;8.626;2022-12-18T04:38:45;-5.30;99.90
16174;DHT22;14031;50.158;8.626;2022-12-18T04:41:15;-5.20;99.90
16174;DHT22;14031;50.158;8.626;2022-12-18T04:43:41;-5.20;99.90
16174;DHT22;14031;50.158;8.626;2022-12-18T04:46:09;-5.20;99.90
16174;DHT22;14031;50.158;8.626;2022-12-18T04:48:37;-5.10;99.90
16174;DHT22;14031;50.158;8.626;2022-12-18T04:51:04;-5.20;99.90
16174;DHT22;14031;50.158;8.626;2022-12-18T04:53:32;-5.20;99.90
16174;DHT22;14031;50.158;8.626;2022-12-18T04:56:06;-5.30;99.90
16174;DHT22;14031;50.158;8.626;2022-12-18T04:58:34;-5.30;99.90
16174;DHT22;14031;50.158;8.626;2022-12-18T05:01:01;-5.30;99.90
16174;DHT22;14031;50.158;8.626;2022-12-18T05:03:29;-5.30;99.90
16174;DHT22;14031;50.158;8.626;2022-12-18T05:05:57;-5.20;99.90
16174;DHT22;14031;50.158;8.626;2022-12-18T05:08:24;-5.30;99.90
16174;DHT22;14031;50.158;8.626;2022-12-18T05:10:58;-5.30;99.90
16174;DHT22;14031;50.158;8.626;2022-12-18T05:13:25;-5.30;99.90
16174;DHT22;14031;50.158;8.626;2022-12-18T05:15:52;-5.30;99.90
16174;DHT22;14031;50.158;8.626;2022-12-18T05:18:19;-5.20;99.90
16174;DHT22;14031;50.158;8.626;2022-12-18T05:20:46;-5.30;99.90
16174;DHT22;14031;50.158;8.626;2022-12-18T05:23:14;-5.40;99.90
16174;DHT22;14031;50.158;8.626;2022-12-18T05:25:41;-5.40;99.90
16174;DHT22;14031;50.158;8.626;2022-12-18T05:28:07;-5.40;99.90
16174;DHT22;14031;50.158;8.626;2022-12-18T05:30:34;-5.50;99.90
16174;DHT22;14031;50.158;8.626;2022-12-18T05:33:01;-5.50;99.90
16174;DHT22;14031;50.158;8.626;2022-12-18T05:35:28;-5.50;99.90
16174;DHT22;14031;50.158;8.626;2022-12-18T05:37:54;-5.50;99.90
16174;DHT22;14031;50.158;8.626;2022-12-18T05:40:23;-5.60;99.90
16174;DHT22;14031;50.158;8.626;2022-12-18T05:42:49;-5.60;99.90
16174;DHT22;14031;50.158;8.626;2022-12-18T05:45:17;-5.60;99.90
16174;DHT22;14031;50.158;8.626;2022-12-18T05:47:43;-5.50;99.90
16174;DHT22;14031;50.158;8.626;2022-12-18T05:50:10;-5.50;99.90
16174;DHT22;14031;50.158;8.626;2022-12-18T05:52:37;-5.50;99.90
16174;DHT22;14031;50.158;8.626;2022-12-18T05:55:04;-5.50;99.90
16174;DHT22;14031;50.158;8.626;2022-12-18T05:57:32;-5.50;99.90
16174;DHT22;14031;50.158;8.626;2022-12-18T05:59:59;-5.50;99.90
16174;DHT22;14031;50.158;8.626;2022-12-18T06:02:26;-5.50;99.90
16174;DHT22;14031;50.158;8.626;2022-12-18T06:04:53;-5.50;99.90
16174;DHT22;14031;50.158;8.626;2022-12-18T06:07:19;-5.50;99.90
16174;DHT22;14031;50.158;8.626;2022-12-18T06:09:46;-5.50;99.90
16174;DHT22;14031;50.158;8.626;2022-12-18T06:12:13;-5.60;99.90
16174;DHT22;14031;50.158;8.626;2022-12-18T06:14:41;-5.60;99.90
16174;DHT22;14031;50.158;8.626;2022-12-18T06:17:08;-5.50;99.90
16174;DHT22;14031;50.158;8.626;2022-12-18T06:19:35;-5.50;99.90
16174;DHT22;14031;50.158;8.626;2022-12-18T06:22:01;-5.60;99.90
16174;DHT22;14031;50.158;8.626;2022-12-18T06:24:28;-5.60;99.90
16174;DHT22;14031;50.158;8.626;2022-12-18T06:26:56;-5.60;99.90
16174;DHT22;14031;50.158;8.626;2022-12-18T06:29:22;-5.60;99.90
16174;DHT22;14031;50.158;8.626;2022-12-18T06:31:51;-5.50;99.90
16174;DHT22;14031;50.158;8.626;2022-12-18T06:34:17;-5.60;99.90
16174;DHT22;14031;50.158;8.626;2022-12-18T06:36:44;-5.50;99.90
16174;DHT22;14031;50.158;8.626;2022-12-18T06:39:11;-5.60;99.90
16174;DHT22;14031;50.158;8.626;2022-12-18T06:41:38;-5.50;99.90
16174;DHT22;14031;50.158;8.626;2022-12-18T06:44:04;-5.50;99.90
16174;DHT22;14031;50.158;8.626;2022-12-18T06:46:32;-5.50;99.90
16174;DHT22;14031;50.158;8.626;2022-12-18T06:49:00;-5.50;99.90
16174;DHT22;14031;50.158;8.626;2022-12-18T06:51:26;-5.50;99.90
16174;DHT22;14031;50.158;8.626;2022-12-18T06:53:53;-5.60;99.90
16174;DHT22;14031;50.158;8.626;2022-12-18T06:56:20;-5.60;99.90
16174;DHT22;14031;50.158;8.626;2022-12-18T06:58:53;-5.70;99.90
16174;DHT22;14031;50.158;8.626;2022-12-18T07:01:20;-5.80;99.90
16174;DHT22;14031;50.158;8.626;2022-12-18T07:03:51;-5.80;99.90
16174;DHT22;14031;50.158;8.626;2022-12-18T07:06:24;-5.80;99.90
16174;DHT22;14031;50.158;8.626;2022-12-18T07:08:52;-5.80;99.90
16174;DHT22;14031;50.158;8.626;2022-12-18T07:11:19;-5.80;99.90
16174;DHT22;14031;50.158;8.626;2022-12-18T07:13:46;-5.80;99.90
16174;DHT22;14031;50.158;8.626;2022-12-18T07:16:16;-5.80;99.90
16174;DHT22;14031;50.158;8.626;2022-12-18T07:18:43;-5.70;99.90
16174;DHT22;14031;50.158;8.626;2022-12-18T07:21:12;-5.60;99.90
16174;DHT22;14031;50.158;8.626;2022-12-18T07:23:40;-5.60;99.90
16174;DHT22;14031;50.158;8.626;2022-12-18T07:26:09;-5.50;99.90
16174;DHT22;14031;50.158;8.626;2022-12-18T07:28:39;-5.50;99.90
16174;DHT22;14031;50.158;8.626;2022-12-18T07:31:07;-5.50;99.90
16174;DHT22;14031;50.158;8.626;2022-12-18T07:33:34;-5.50;99.90
16174;DHT22;14031;50.158;8.626;2022-12-18T07:36:02;-5.50;99.90
16174;DHT22;14031;50.158;8.626;2022-12-18T07:38:30;-5.70;99.90
16174;DHT22;14031;50.158;8.626;2022-12-18T07:41:01;-5.70;99.90
16174;DHT22;14031;50.158;8.626;2022-12-18T07:43:29;-5.70;99.90
16174;DHT22;14031;50.158;8.626;2022-12-18T07:46:02;-5.80;99.90
16174;DHT22;14031;50.158;8.626;2022-12-18T07:48:30;-5.70;99.90
16174;DHT22;14031;50.158;8.626;2022-12-18T07:50:58;-5.70;99.90
16174;DHT22;14031;50.158;8.626;2022-12-18T07:53:25;-5.60;99.90
16174;DHT22;14031;50.158;8.626;2022-12-18T07:55:55;-5.60;99.90
16174;DHT22;14031;50.158;8.626;2022-12-18T07:58:23;-5.60;99.90
16174;DHT22;14031;50.158;8.626;2022-12-18T08:00:50;-5.70;99.90
16174;DHT22;14031;50.158;8.626;2022-12-18T08:03:17;-5.70;99.90
16174;DHT22;14031;50.158;8.626;2022-12-18T08:05:44;-5.70;99.90
16174;DHT22;14031;50.158;8.626;2022-12-18T08:08:11;-5.60;99.90
16174;DHT22;14031;50.158;8.626;2022-12-18T08:10:38;-5.70;99.90
16174;DHT22;14031;50.158;8.626;2022-12-18T08:13:05;-5.70;99.90
16174;DHT22;14031;50.158;8.626;2022-12-18T08:15:33;-5.60;99.90
16174;DHT22;14031;50.158;8.626;2022-12-18T08:18:00;-5.60;99.90
16174;DHT22;14031;50.158;8.626;2022-12-18T08:20:27;-5.50;99.90
16174;DHT22;14031;50.158;8.626;2022-12-18T08:22:54;-5.50;99.90
16174;DHT22;14031;50.158;8.626;2022-12-18T08:25:23;-5.50;99.90
16174;DHT22;14031;50.158;8.626;2022-12-18T08:27:51;-5.40;99.90
16174;DHT22;14031;50.158;8.626;2022-12-18T08:30:18;-5.30;99.90
16174;DHT22;14031;50.158;8.626;2022-12-18T08:32:46;-5.40;99.90
16174;DHT22;14031;50.158;8.626;2022-12-18T08:35:14;-5.30;99.90
16174;DHT22;14031;50.158;8.626;2022-12-18T08:37:41;-5.30;99.90
16174;DHT22;14031;50.158;8.626;2022-12-18T08:40:09;-5.20;99.90
16174;DHT22;14031;50.158;8.626;2022-12-18T08:42:38;-5.20;99.90
16174;DHT22;14031;50.158;8.626;2022-12-18T08:45:22;-5.10;99.90
16174;DHT22;14031;50.158;8.626;2022-12-18T08:47:51;-5.10;99.90
16174;DHT22;14031;50.158;8.626;2022-12-18T08:50:18;-5.10;99.90
16174;DHT22;14031;50.158;8.626;2022-12-18T08:52:45;-5.00;99.90
16174;DHT22;14031;50.158;8.626;2022-12-18T08:55:12;-5.00;99.90
16174;DHT22;14031;50.158;8.626;2022-12-18T08:57:39;-4.90;99.90
16174;DHT22;14031;50.158;8.626;2022-12-18T09:00:07;-4.90;99.90
16174;DHT22;14031;50.158;8.626;2022-12-18T09:02:34;-4.90;99.90
16174;DHT22;14031;50.158;8.626;2022-12-18T09:05:02;-4.90;99.90
16174;DHT22;14031;50.158;8.626;2022-12-18T09:07:29;-4.90;99.90
16174;DHT22;14031;50.158;8.626;2022-12-18T09:09:56;-4.80;99.90
16174;DHT22;14031;50.158;8.626;2022-12-18T09:12:23;-4.80;99.90
16174;DHT22;14031;50.158;8.626;2022-12-18T09:14:50;-4.80;99.90
16174;DHT22;14031;50.158;8.626;2022-12-18T09:17:17;-4.90;99.90
16174;DHT22;14031;50.158;8.626;2022-12-18T09:19:43;-4.80;99.90
16174;DHT22;14031;50.158;8.626;2022-12-18T09:22:11;-4.70;99.90
16174;DHT22;14031;50.158;8.626;2022-12-18T09:24:38;-4.70;99.90
16174;DHT22;14031;50.158;8.626;2022-12-18T09:27:05;-4.60;99.90
16174;DHT22;14031;50.158;8.626;2022-12-18T09:29:32;-4.50;99.90
16174;DHT22;14031;50.158;8.626;2022-12-18T09:31:59;-4.40;99.90
16174;DHT22;14031;50.158;8.626;2022-12-18T09:34:26;-4.40;99.90
16174;DHT22;14031;50.158;8.626;2022-12-18T09:36:53;-4.30;99.90
16174;DHT22;14031;50.158;8.626;2022-12-18T09:39:21;-4.10;99.90
16174;DHT22;14031;50.158;8.626;2022-12-18T09:41:51;-3.80;99.90
16174;DHT22;14031;50.158;8.626;2022-12-18T09:44:23;-3.90;99.90
16174;DHT22;14031;50.158;8.626;2022-12-18T09:46:56;-3.80;99.90
16174;DHT22;14031;50.158;8.626;2022-12-18T09:49:27;-3.70;99.90
16174;DHT22;14031;50.158;8.626;2022-12-18T09:51:59;-3.60;99.90
16174;DHT22;14031;50.158;8.626;2022-12-18T09:54:33;-3.50;99.90
16174;DHT22;14031;50.158;8.626;2022-12-18T09:57:02;-3.50;99.90
16174;DHT22;14031;50.158;8.626;2022-12-18T09:59:33;-3.50;99.90
16174;DHT22;14031;50.158;8.626;2022-12-18T10:02:13;-3.40;99.90
16174;DHT22;14031;50.158;8.626;2022-12-18T10:04:41;-3.30;99.90
16174;DHT22;14031;50.158;8.626;2022-12-18T10:07:13;-3.20;99.90
16174;DHT22;14031;50.158;8.626;2022-12-18T10:09:53;-3.20;99.90
16174;DHT22;14031;50.158;8.626;2022-12-18T10:12:26;-3.20;99.90
16174;DHT22;14031;50.158;8.626;2022-12-18T10:14:59;-3.30;99.90
16174;DHT22;14031;50.158;8.626;2022-12-18T10:17:37;-3.20;99.90
16174;DHT22;14031;50.158;8.626;2022-12-18T10:20:13;-3.20;99.90
16174;DHT22;14031;50.158;8.626;2022-12-18T10:22:48;-3.10;99.90
16174;DHT22;14031;50.158;8.626;2022-12-18T10:25:22;-3.00;99.90
16174;DHT22;14031;50.158;8.626;2022-12-18T10:27:53;-2.90;99.90
16174;DHT22;14031;50.158;8.626;2022-12-18T10:30:23;-2.90;99.90
16174;DHT22;14031;50.158;8.626;2022-12-18T10:32:50;-2.80;99.90
16174;DHT22;14031;50.158;8.626;2022-12-18T10:35:20;-2.70;99.90
16174;DHT22;14031;50.158;8.626;2022-12-18T10:38:01;-2.60;99.90
16174;DHT22;14031;50.158;8.626;2022-12-18T10:40:29;-2.50;99.90
16174;DHT22;14031;50.158;8.626;2022-12-18T10:43:11;-2.40;99.90
16174;DHT22;14031;50.158;8.626;2022-12-18T10:45:38;-2.30;99.90
16174;DHT22;14031;50.158;8.626;2022-12-18T10:48:17;-2.30;99.90
16174;DHT22;14031;50.158;8.626;2022-12-18T10:50:48;-2.20;99.90
16174;DHT22;14031;50.158;8.626;2022-12-18T10:53:20;-2.20;99.90
16174;DHT22;14031;50.158;8.626;2022-12-18T10:55:49;-2.20;99.90
16174;DHT22;14031;50.158;8.626;2022-12-18T10:58:24;-2.30;99.90
16174;DHT22;14031;50.158;8.626;2022-12-18T11:01:06;-2.30;99.90
16174;DHT22;14031;50.158;8.626;2022-12-18T11:03:35;-2.30;99.90
16174;DHT22;14031;50.158;8.626;2022-12-18T11:06:05;-2.30;99.90
16174;DHT22;14031;50.158;8.626;2022-12-18T11:08:32;-2.30;99.90
16174;DHT22;14031;50.158;8.626;2022-12-18T11:11:01;-2.30;99.90
16174;DHT22;14031;50.158;8.626;2022-12-18T11:13:29;-2.20;99.90
16174;DHT22;14031;50.158;8.626;2022-12-18T11:15:57;-2.10;99.90
16174;DHT22;14031;50.158;8.626;2022-12-18T11:18:27;-2.10;99.90
16174;DHT22;14031;50.158;8.626;2022-12-18T11:20:56;-2.00;99.90
16174;DHT22;14031;50.158;8.626;2022-12-18T11:23:24;-2.00;99.90
16174;DHT22;14031;50.158;8.626;2022-12-18T11:25:54;-1.90;99.90
16174;DHT22;14031;50.158;8.626;2022-12-18T11:28:36;-1.90;99.90
16174;DHT22;14031;50.158;8.626;2022-12-18T11:31:19;-1.90;99.90
16174;DHT22;14031;50.158;8.626;2022-12-18T11:33:55;-1.90;99.90
16174;DHT22;14031;50.158;8.626;2022-12-18T11:36:23;-1.90;99.90
16174;DHT22;14031;50.158;8.626;2022-12-18T11:38:52;-1.90;99.90
16174;DHT22;14031;50.158;8.626;2022-12-18T11:41:24;-1.90;99.90
16174;DHT22;14031;50.158;8.626;2022-12-18T11:44:19;-1.90;99.90
16174;DHT22;14031;50.158;8.626;2022-12-18T11:46:53;-2.00;99.90
16174;DHT22;14031;50.158;8.626;2022-12-18T11:49:25;-2.00;99.90
16174;DHT22;14031;50.158;8.626;2022-12-18T11:51:58;-2.00;99.90
16174;DHT22;14031;50.158;8.626;2022-12-18T11:54:26;-2.00;99.90
16174;DHT22;14031;50.158;8.626;2022-12-18T11:56:57;-2.00;99.90
16174;DHT22;14031;50.158;8.626;2022-12-18T11:59:32;-2.00;99.90
16174;DHT22;14031;50.158;8.626;2022-12-18T12:02:10;-2.00;99.90
16174;DHT22;14031;50.158;8.626;2022-12-18T12:04:54;-1.90;99.90
16174;DHT22;14031;50.158;8.626;2022-12-18T12:07:34;-1.90;99.90
16174;DHT22;14031;50.158;8.626;2022-12-18T12:10:15;-1.80;99.90
16174;DHT22;14031;50.158;8.626;2022-12-18T12:12:59;-1.90;99.90
16174;DHT22;14031;50.158;8.626;2022-12-18T12:15:34;-1.90;99.90
16174;DHT22;14031;50.158;8.626;2022-12-18T12:18:13;-1.90;99.90
16174;DHT22;14031;50.158;8.626;2022-12-18T12:20:49;-1.90;99.90
16174;DHT22;14031;50.158;8.626;2022-12-18T12:23:24;-1.90;99.90
16174;DHT22;14031;50.158;8.626;2022-12-18T12:25:57;-1.90;99.90
16174;DHT22;14031;50.158;8.626;2022-12-18T12:28:42;-1.90;99.90
16174;DHT22;14031;50.158;8.626;2022-12-18T12:31:24;-1.90;99.90
16174;DHT22;14031;50.158;8.626;2022-12-18T12:34:00;-1.90;99.90
16174;DHT22;14031;50.158;8.626;2022-12-18T12:36:37;-1.80;99.90
16174;DHT22;14031;50.158;8.626;2022-12-18T12:39:11;-1.70;99.90
16174;DHT22;14031;50.158;8.626;2022-12-18T12:41:41;-1.60;99.90
16174;DHT22;14031;50.158;8.626;2022-12-18T12:44:29;-1.60;99.90
16174;DHT22;14031;50.158;8.626;2022-12-18T12:47:01;-1.60;99.90
16174;DHT22;14031;50.158;8.626;2022-12-18T12:49:33;-1.60;99.90
16174;DHT22;14031;50.158;8.626;2022-12-18T12:52:06;-1.60;99.90
16174;DHT22;14031;50.158;8.626;2022-12-18T12:54:34;-1.60;99.90
16174;DHT22;14031;50.158;8.626;2022-12-18T12:57:07;-1.60;99.90
16174;DHT22;14031;50.158;8.626;2022-12-18T12:59:41;-1.60;99.90
16174;DHT22;14031;50.158;8.626;2022-12-18T13:02:20;-1.50;99.90
16174;DHT22;14031;50.158;8.626;2022-12-18T13:04:52;-1.50;99.90
16174;DHT22;14031;50.158;8.626;2022-12-18T13:07:27;-1.40;99.90
16174;DHT22;14031;50.158;8.626;2022-12-18T13:10:23;-1.50;99.90
16174;DHT22;14031;50.158;8.626;2022-12-18T13:12:55;-1.50;99.90
16174;DHT22;14031;50.158;8.626;2022-12-18T13:15:23;-1.50;99.90
16174;DHT22;14031;50.158;8.626;2022-12-18T13:18:18;-1.50;99.90
16174;DHT22;14031;50.158;8.626;2022-12-18T13:20:47;-1.50;99.90
16174;DHT22;14031;50.158;8.626;2022-12-18T13:23:38;-1.40;99.90
16174;DHT22;14031;50.158;8.626;2022-12-18T13:26:33;-1.40;99.90
16174;DHT22;14031;50.158;8.626;2022-12-18T13:29:00;-1.40;99.90
16174;DHT22;14031;50.158;8.626;2022-12-18T13:31:59;-1.40;99.90
16174;DHT22;14031;50.158;8.626;2022-12-18T13:34:28;-1.40;99.90
16174;DHT22;14031;50.158;8.626;2022-12-18T13:36:57;-1.30;99.90
16174;DHT22;14031;50.158;8.626;2022-12-18T13:39:45;-1.30;99.90
16174;DHT22;14031;50.158;8.626;2022-12-18T13:42:39;-1.30;99.90
16174;DHT22;14031;50.158;8.626;2022-12-18T13:45:40;-1.30;99.90
16174;DHT22;14031;50.158;8.626;2022-12-18T13:48:16;-1.30;99.90
16174;DHT22;14031;50.158;8.626;2022-12-18T13:50:52;-1.30;99.90
16174;DHT22;14031;50.158;8.626;2022-12-18T13:53:21;-1.30;99.90
16174;DHT22;14031;50.158;8.626;2022-12-18T13:55:51;-1.30;99.90
16174;DHT22;14031;50.158;8.626;2022-12-18T13:58:18;-1.30;99.90
16174;DHT22;14031;50.158;8.626;2022-12-18T14:00:45;-1.30;99.90
16174;DHT22;14031;50.158;8.626;2022-12-18T14:03:18;-1.30;99.90
16174;DHT22;14031;50.158;8.626;2022-12-18T14:05:45;-1.30;99.90
16174;DHT22;14031;50.158;8.626;2022-12-18T14:08:18;-1.30;99.90
16174;DHT22;14031;50.158;8.626;2022-12-18T14:10:47;-1.30;99.90
16174;DHT22;14031;50.158;8.626;2022-12-18T14:13:22;-1.30;99.90
16174;DHT22;14031;50.158;8.626;2022-12-18T14:15:50;-1.30;99.90
16174;DHT22;14031;50.158;8.626;2022-12-18T14:18:21;-1.40;99.90
16174;DHT22;14031;50.158;8.626;2022-12-18T14:20:50;-1.30;99.90
16174;DHT22;14031;50.158;8.626;2022-12-18T14:23:32;-1.10;99.90
16174;DHT22;14031;50.158;8.626;2022-12-18T14:25:59;-1.30;99.90
16174;DHT22;14031;50.158;8.626;2022-12-18T14:28:28;-1.30;99.90
16174;DHT22;14031;50.158;8.626;2022-12-18T14:30:55;-1.30;99.90
16174;DHT22;14031;50.158;8.626;2022-12-18T14:33:23;-1.30;99.90
16174;DHT22;14031;50.158;8.626;2022-12-18T14:35:56;-1.30;99.90
16174;DHT22;14031;50.158;8.626;2022-12-18T14:38:27;-1.30;99.90
16174;DHT22;14031;50.158;8.626;2022-12-18T14:40:58;-1.30;99.90
16174;DHT22;14031;50.158;8.626;2022-12-18T14:43:28;-1.30;99.90
16174;DHT22;14031;50.158;8.626;2022-12-18T14:45:56;-1.30;99.90
16174;DHT22;14031;50.158;8.626;2022-12-18T14:48:36;-1.30;99.90
16174;DHT22;14031;50.158;8.626;2022-12-18T14:51:05;-1.30;99.90
16174;DHT22;14031;50.158;8.626;2022-12-18T14:53:35;-1.30;99.90
16174;DHT22;14031;50.158;8.626;2022-12-18T14:56:05;-1.30;99.90
16174;DHT22;14031;50.158;8.626;2022-12-18T14:58:44;-1.30;99.90
16174;DHT22;14031;50.158;8.626;2022-12-18T15:01:21;-1.30;99.90
16174;DHT22;14031;50.158;8.626;2022-12-18T15:03:50;-1.30;99.90
16174;DHT22;14031;50.158;8.626;2022-12-18T15:06:21;-1.30;99.90
16174;DHT22;14031;50.158;8.626;2022-12-18T15:08:50;-1.30;99.90
16174;DHT22;14031;50.158;8.626;2022-12-18T15:11:26;-1.40;99.90
16174;DHT22;14031;50.158;8.626;2022-12-18T15:13:57;-1.50;99.90
16174;DHT22;14031;50.158;8.626;2022-12-18T15:16:24;-1.40;99.90
16174;DHT22;14031;50.158;8.626;2022-12-18T15:18:51;-1.40;99.90
16174;DHT22;14031;50.158;8.626;2022-12-18T15:21:19;-1.40;99.90
16174;DHT22;14031;50.158;8.626;2022-12-18T15:23:48;-1.40;99.90
16174;DHT22;14031;50.158;8.626;2022-12-18T15:26:17;-1.50;99.90
16174;DHT22;14031;50.158;8.626;2022-12-18T15:28:46;-1.40;99.90
16174;DHT22;14031;50.158;8.626;2022-12-18T15:31:28;-1.40;99.90
16174;DHT22;14031;50.158;8.626;2022-12-18T15:34:11;-1.40;99.90
16174;DHT22;14031;50.158;8.626;2022-12-18T15:36:39;-1.40;99.90
16174;DHT22;14031;50.158;8.626;2022-12-18T15:39:06;-1.40;99.90
16174;DHT22;14031;50.158;8.626;2022-12-18T15:41:36;-1.40;99.90
16174;DHT22;14031;50.158;8.626;2022-12-18T15:44:21;-1.40;99.90
16174;DHT22;14031;50.158;8.626;2022-12-18T15:46:49;-1.40;99.90
16174;DHT22;14031;50.158;8.626;2022-12-18T15:49:15;-1.40;99.90
16174;DHT22;14031;50.158;8.626;2022-12-18T15:51:42;-1.40;99.90